Time;durP1;ratioP1;P1;durP2;ratioP2;P2;SDS_P1;SDS_P2;PMS_P1;PMS_P2;Temp;Humidity;BMP_temperature;BMP_pressure;BME280_temperature;BME280_humidity;BME280_pressure;Samples;Min_cycle;Max_cycle;Signal;HPM_P1;HPM_P2
2021/01/22 00:01:13;;;;;;;1.40;0.60;;;;;;;10.91;100.00;97183.25;4981288;28;20203;-36
2021/01/22 00:04:00;;;;;;;1.13;0.77;;;;;;;10.93;100.00;97187.44;4981363;28;20198;-34
2021/01/22 00:06:47;;;;;;;2.07;0.80;;;;;;;10.93;100.00;97191.78;4981267;28;20222;-33
2021/01/22 00:09:33;;;;;;;1.67;0.80;;;;;;;10.95;100.00;97177.81;4981356;28;20227;-34
2021/01/22 00:12:20;;;;;;;1.73;0.83;;;;;;;10.98;100.00;97184.56;4981427;28;20203;-33
2021/01/22 00:15:08;;;;;;;0.70;0.70;;;;;;;10.90;100.00;97171.25;4981182;28;20230;-35
2021/01/22 00:17:56;;;;;;;6.47;1.23;;;;;;;10.92;100.00;97157.31;4980961;28;20598;-33
2021/01/22 00:20:42;;;;;;;1.20;1.07;;;;;;;10.90;100.00;97185.03;4980957;28;20207;-36
2021/01/22 00:23:29;;;;;;;0.73;0.50;;;;;;;10.89;100.00;97152.31;4981377;28;20203;-35
2021/01/22 00:26:18;;;;;;;1.87;0.70;;;;;;;10.85;100.00;97158.59;4981268;28;20196;-36
2021/01/22 00:29:06;;;;;;;0.63;0.57;;;;;;;10.72;100.00;97149.09;4981360;28;20204;-34
2021/01/22 00:31:53;;;;;;;1.50;0.80;;;;;;;10.74;100.00;97140.31;4981064;28;20615;-33
2021/01/22 00:34:43;;;;;;;2.23;0.60;;;;;;;10.84;100.00;97140.59;4980701;28;20266;-33
2021/01/22 00:37:30;;;;;;;1.03;0.67;;;;;;;10.85;100.00;97142.25;4980724;28;20242;-34
2021/01/22 00:40:17;;;;;;;0.40;0.40;;;;;;;10.77;100.00;97141.91;4981055;28;20542;-38
2021/01/22 00:43:03;;;;;;;1.40;0.70;;;;;;;10.77;100.00;97128.97;4980961;28;20211;-36
2021/01/22 00:45:50;;;;;;;0.70;0.70;;;;;;;10.80;100.00;97133.94;4980360;28;20198;-34
2021/01/22 00:48:37;;;;;;;0.50;0.50;;;;;;;10.87;100.00;97114.53;4980405;28;20199;-35
2021/01/22 00:51:24;;;;;;;2.00;0.80;;;;;;;10.96;100.00;97116.59;4979483;28;20242;-35
2021/01/22 00:54:11;;;;;;;1.10;0.80;;;;;;;10.95;100.00;97114.91;4979731;28;20199;-34
2021/01/22 00:56:58;;;;;;;0.90;0.80;;;;;;;10.99;100.00;97093.94;4980228;28;20745;-35
2021/01/22 00:59:44;;;;;;;2.47;0.77;;;;;;;10.88;100.00;97113.63;4980345;28;20318;-35
2021/01/22 01:02:30;;;;;;;1.87;0.90;;;;;;;10.85;100.00;97109.47;4980239;28;20230;-34
2021/01/22 01:05:21;;;;;;;0.80;0.80;;;;;;;10.56;100.00;97094.91;4980368;28;20594;-35
2021/01/22 01:08:08;;;;;;;2.73;0.87;;;;;;;10.43;100.00;97101.69;4980329;28;20203;-34
2021/01/22 01:10:59;;;;;;;1.40;0.57;;;;;;;10.49;100.00;97091.00;4979775;28;20276;-36
2021/01/22 01:13:46;;;;;;;2.50;0.90;;;;;;;10.51;100.00;97077.06;4980164;28;20723;-35
2021/01/22 01:16:33;;;;;;;3.37;0.93;;;;;;;10.34;100.00;97077.25;4979867;28;20322;-36
2021/01/22 01:19:20;;;;;;;1.47;0.80;;;;;;;10.46;100.00;97073.94;4980799;28;20311;-34
2021/01/22 01:22:07;;;;;;;2.10;0.73;;;;;;;10.57;100.00;97079.31;4980159;28;20219;-35
2021/01/22 01:24:55;;;;;;;0.90;0.90;;;;;;;10.64;100.00;97049.56;4979764;28;20203;-35
2021/01/22 01:27:42;;;;;;;1.20;0.87;;;;;;;10.94;100.00;97066.72;4979964;28;20487;-34
2021/01/22 01:30:28;;;;;;;3.93;1.00;;;;;;;11.03;100.00;97060.94;4979905;28;20207;-33
2021/01/22 01:33:15;;;;;;;5.67;1.50;;;;;;;11.08;100.00;97058.06;4979427;28;20487;-36
2021/01/22 01:36:02;;;;;;;4.60;1.07;;;;;;;11.00;100.00;97066.31;4979527;28;20223;-35
2021/01/22 01:38:50;;;;;;;2.77;1.20;;;;;;;10.82;100.00;97067.44;4979490;28;20602;-35
2021/01/22 01:41:37;;;;;;;4.53;1.50;;;;;;;10.86;100.00;97056.00;4980027;28;20207;-35
2021/01/22 01:44:24;;;;;;;2.90;1.10;;;;;;;10.78;100.00;97058.25;4979411;28;20200;-39
2021/01/22 01:47:11;;;;;;;3.17;1.27;;;;;;;10.77;100.00;97047.06;4979173;28;20211;-33
2021/01/22 01:49:57;;;;;;;2.33;1.10;;;;;;;10.82;100.00;97057.09;4979511;28;20665;-34
2021/01/22 01:52:44;;;;;;;4.07;1.23;;;;;;;10.67;100.00;97043.38;4978975;28;20199;-35
2021/01/22 01:55:31;;;;;;;3.57;1.40;;;;;;;10.55;100.00;97057.06;4979088;28;20231;-34
2021/01/22 01:58:20;;;;;;;5.03;1.97;;;;;;;10.42;100.00;97046.59;4979280;28;20243;-35
2021/01/22 02:01:09;;;;;;;4.27;1.50;;;;;;;10.38;100.00;97058.06;4979583;28;20204;-38
2021/01/22 02:03:56;;;;;;;4.53;1.33;;;;;;;10.43;100.00;97050.84;4979393;28;20211;-36
2021/01/22 02:06:43;;;;;;;4.57;1.40;;;;;;;10.58;100.00;97060.28;4978153;28;20199;-36
2021/01/22 02:09:30;;;;;;;4.37;1.50;;;;;;;10.52;100.00;97046.91;4979246;28;20609;-39
2021/01/22 02:12:18;;;;;;;2.50;1.20;;;;;;;10.65;100.00;97061.56;4978669;28;20261;-38
2021/01/22 02:15:09;;;;;;;5.23;1.37;;;;;;;10.62;100.00;97059.16;4979099;28;20262;-37
2021/01/22 02:17:58;;;;;;;1.83;1.13;;;;;;;10.52;100.00;97052.06;4978675;28;20199;-37
2021/01/22 02:20:59;;;;;;;4.47;1.37;;;;;;;10.38;100.00;97047.75;4977378;28;20204;-37
2021/01/22 02:23:47;;;;;;;3.00;1.17;;;;;;;10.32;100.00;97054.09;4979004;28;20270;-39
2021/01/22 02:26:53;;;;;;;2.73;1.30;;;;;;;10.43;100.00;97053.44;4979251;28;20199;-40
2021/01/22 02:29:40;;;;;;;3.47;1.23;;;;;;;10.37;100.00;97056.41;4978946;28;20295;-38
2021/01/22 02:32:28;;;;;;;3.07;1.23;;;;;;;10.46;100.00;97045.50;4978698;28;20463;-40
2021/01/22 02:35:17;;;;;;;2.33;0.77;;;;;;;10.43;100.00;97040.50;4978590;28;20357;-37
2021/01/22 02:38:06;;;;;;;2.30;1.17;;;;;;;10.40;100.00;97053.63;4978704;28;20203;-34
2021/01/22 02:40:57;;;;;;;1.47;0.80;;;;;;;10.37;100.00;97053.81;4978881;28;20203;-36
2021/01/22 02:43:46;;;;;;;2.37;1.03;;;;;;;10.30;100.00;97055.09;4978869;28;20199;-39
2021/01/22 02:46:34;;;;;;;1.70;0.80;;;;;;;10.26;100.00;97069.13;4978729;28;20638;-35
2021/01/22 02:49:22;;;;;;;2.63;0.93;;;;;;;10.16;100.00;97066.22;4978639;28;20203;-34
2021/01/22 02:52:09;;;;;;;4.73;0.90;;;;;;;10.13;100.00;97079.31;4978797;28;20223;-37
2021/01/22 02:54:56;;;;;;;2.97;1.07;;;;;;;10.03;100.00;97187.47;4978229;28;20203;-38
2021/01/22 02:57:50;;;;;;;5.60;1.27;;;;;;;7.62;100.00;97223.97;4978611;28;20664;-37
2021/01/22 03:00:46;;;;;;;2.63;1.27;;;;;;;7.35;100.00;97223.50;4958950;29;20227;-39
2021/01/22 03:03:47;;;;;;;1.50;0.87;;;;;;;7.24;100.00;97229.13;4959414;29;20259;-39
2021/01/22 03:06:43;;;;;;;2.00;0.80;;;;;;;7.06;100.00;97245.34;4959394;29;20239;-35
2021/01/22 03:09:31;;;;;;;1.47;1.37;;;;;;;7.09;100.00;97255.50;4959279;29;20223;-41
2021/01/22 03:12:18;;;;;;;2.33;1.17;;;;;;;6.95;100.00;97270.69;4959086;29;20251;-39
2021/01/22 03:15:06;;;;;;;0.80;0.80;;;;;;;6.85;100.00;97277.13;4959172;29;20719;-39
2021/01/22 03:18:10;;;;;;;0.80;0.80;;;;;;;6.81;100.00;97289.25;4958416;29;20195;-40
2021/01/22 03:20:58;;;;;;;1.30;1.20;;;;;;;6.80;100.00;97315.00;4959307;29;20343;-40
2021/01/22 03:23:44;;;;;;;0.80;0.80;;;;;;;6.27;100.00;97350.53;4959112;29;20200;-36
2021/01/22 03:26:31;;;;;;;0.70;0.70;;;;;;;6.05;100.00;97371.91;4958911;29;20664;-38
2021/01/22 03:29:18;;;;;;;0.70;0.70;;;;;;;5.80;100.00;97386.47;4958858;29;20211;-36
2021/01/22 03:32:05;;;;;;;1.10;1.10;;;;;;;5.72;100.00;97398.75;4959054;29;20209;-39
2021/01/22 03:34:54;;;;;;;1.13;1.10;;;;;;;5.65;100.00;97413.53;4959158;29;20297;-35
2021/01/22 03:37:40;;;;;;;1.10;1.10;;;;;;;5.57;100.00;97436.03;4958681;29;20541;-39
2021/01/22 03:40:27;;;;;;;1.00;1.00;;;;;;;5.37;100.00;97441.84;4958854;29;20353;-35
2021/01/22 03:43:13;;;;;;;1.10;1.10;;;;;;;5.41;100.00;97443.41;4958756;29;20204;-40
2021/01/22 03:45:59;;;;;;;1.10;1.10;;;;;;;5.34;100.00;97453.94;4958598;29;20204;-40
2021/01/22 03:48:47;;;;;;;1.10;1.10;;;;;;;5.34;100.00;97477.00;4959045;29;20201;-41
2021/01/22 03:51:34;;;;;;;1.10;1.00;;;;;;;5.14;100.00;97472.53;4958767;29;20204;-39
2021/01/22 03:54:21;;;;;;;0.60;0.60;;;;;;;4.95;100.00;97463.75;4958810;29;20208;-40
2021/01/22 03:57:07;;;;;;;0.63;0.63;;;;;;;4.93;100.00;97478.34;4959054;29;20236;-37
2021/01/22 03:59:54;;;;;;;1.00;1.00;;;;;;;4.92;100.00;97490.31;4975754;28;20568;-38
2021/01/22 04:02:40;;;;;;;3.90;1.77;;;;;;;5.05;100.00;97499.25;4977854;28;20207;-38
2021/01/22 04:05:27;;;;;;;1.77;1.67;;;;;;;4.97;100.00;97505.53;4977874;28;20207;-37
2021/01/22 04:08:14;;;;;;;2.43;1.93;;;;;;;5.21;100.00;97520.09;4977995;28;20260;-37
2021/01/22 04:11:01;;;;;;;2.20;2.10;;;;;;;5.11;100.00;97527.25;4977655;28;20621;-38
2021/01/22 04:13:48;;;;;;;2.20;2.10;;;;;;;5.09;100.00;97536.72;4977818;28;20283;-36
2021/01/22 04:16:34;;;;;;;2.33;2.23;;;;;;;4.62;100.00;97540.69;4977695;28;20234;-37
2021/01/22 04:19:21;;;;;;;2.00;1.90;;;;;;;4.59;100.00;97538.25;4977873;28;20298;-38
2021/01/22 04:22:07;;;;;;;2.87;2.67;;;;;;;4.76;100.00;97550.56;4977605;28;20207;-40
2021/01/22 04:24:55;;;;;;;2.13;1.67;;;;;;;4.81;100.00;97561.47;4977660;28;20199;-37
2021/01/22 04:27:42;;;;;;;2.53;2.33;;;;;;;4.63;100.00;97577.38;4977811;28;20308;-41
2021/01/22 04:30:28;;;;;;;2.53;2.33;;;;;;;4.65;100.00;97570.50;4981109;28;20239;-38
2021/01/22 04:33:14;;;;;;;3.00;2.70;;;;;;;4.79;100.00;97579.47;4981272;28;20199;-40
2021/01/22 04:36:01;;;;;;;3.10;2.90;;;;;;;4.62;100.00;97585.94;4981012;28;20692;-39
2021/01/22 04:38:47;;;;;;;3.03;2.60;;;;;;;4.80;100.00;97582.84;4981215;28;20210;-40
2021/01/22 04:41:35;;;;;;;3.87;3.37;;;;;;;4.71;100.00;97583.97;4981207;28;20541;-37
2021/01/22 04:44:22;;;;;;;5.93;3.43;;;;;;;4.85;100.00;97594.63;4981024;28;20303;-36
2021/01/22 04:47:08;;;;;;;3.70;3.40;;;;;;;4.92;100.00;97604.72;4980662;28;20195;-40
2021/01/22 04:49:56;;;;;;;3.63;3.30;;;;;;;4.96;100.00;97611.44;4980793;28;20199;-39
2021/01/22 04:52:44;;;;;;;4.87;3.50;;;;;;;5.02;100.00;97614.63;4980628;28;20199;-37
2021/01/22 04:55:32;;;;;;;4.43;3.50;;;;;;;5.14;100.00;97624.53;4980762;28;20316;-41
2021/01/22 04:58:20;;;;;;;6.67;4.57;;;;;;;5.04;100.00;97630.78;4979954;28;20243;-40
2021/01/22 05:01:08;;;;;;;5.43;3.83;;;;;;;5.00;100.00;97618.13;4980344;28;20242;-37
2021/01/22 05:03:58;;;;;;;3.97;3.20;;;;;;;5.18;100.00;97607.34;4980364;28;20196;-39
2021/01/22 05:06:44;;;;;;;4.20;3.73;;;;;;;5.01;100.00;97607.81;4979805;28;20199;-37
2021/01/22 05:09:31;;;;;;;6.50;4.40;;;;;;;4.92;100.00;97615.81;4979803;28;20278;-40
2021/01/22 05:12:17;;;;;;;5.40;4.50;;;;;;;4.95;100.00;97615.72;4979885;28;20242;-38
2021/01/22 05:15:24;;;;;;;7.53;5.50;;;;;;;5.13;100.00;97617.72;4980154;28;20298;-39
2021/01/22 05:18:10;;;;;;;7.03;5.73;;;;;;;4.76;100.00;97641.00;4980069;28;20208;-38
2021/01/22 05:20:56;;;;;;;8.10;5.57;;;;;;;4.80;100.00;97641.75;4979483;28;20502;-38
2021/01/22 05:23:43;;;;;;;8.67;6.10;;;;;;;4.95;100.00;97653.28;4979697;28;20309;-39
2021/01/22 05:26:29;;;;;;;6.53;5.30;;;;;;;4.87;100.00;97647.53;4980291;28;20203;-36
2021/01/22 05:29:17;;;;;;;8.50;6.70;;;;;;;4.73;100.00;97646.22;4980017;28;20203;-38
2021/01/22 05:32:24;;;;;;;8.90;6.77;;;;;;;4.77;100.00;97649.53;4980464;28;20199;-38
2021/01/22 05:35:12;;;;;;;8.77;6.70;;;;;;;4.93;100.00;97647.38;4979229;28;20211;-40
2021/01/22 05:37:59;;;;;;;9.00;6.87;;;;;;;4.80;100.00;97649.44;4979666;28;20195;-37
2021/01/22 05:40:50;;;;;;;9.10;7.07;;;;;;;4.62;100.00;97647.38;4979285;28;20203;-38
2021/01/22 05:43:37;;;;;;;10.10;7.57;;;;;;;4.68;100.00;97658.31;4979332;28;20263;-40
2021/01/22 05:46:26;;;;;;;13.60;8.63;;;;;;;4.55;100.00;97668.94;4979256;28;20354;-40
2021/01/22 05:49:14;;;;;;;9.63;7.50;;;;;;;4.69;100.00;97665.09;4979887;28;20298;-38
2021/01/22 05:52:01;;;;;;;13.93;9.13;;;;;;;4.62;100.00;97670.41;4979539;28;20211;-37
2021/01/22 05:54:47;;;;;;;11.17;8.80;;;;;;;4.57;100.00;97674.84;4979363;28;20199;-34
2021/01/22 05:57:38;;;;;;;11.77;9.07;;;;;;;4.71;100.00;97673.59;4979572;28;20231;-40
2021/01/22 06:00:27;;;;;;;12.93;9.80;;;;;;;4.61;100.00;97679.81;4940817;29;20252;-41
2021/01/22 06:03:22;;;;;;;13.60;11.77;;;;;;;4.72;100.00;97676.97;4939421;29;20563;-38
2021/01/22 06:06:11;;;;;;;12.10;10.63;;;;;;;4.79;100.00;97686.19;4940459;29;20213;-38
2021/01/22 06:08:59;;;;;;;17.87;12.67;;;;;;;4.68;100.00;97685.63;4940753;29;20220;-36
2021/01/22 06:11:45;;;;;;;15.87;12.80;;;;;;;4.77;100.00;97693.06;4941057;29;20231;-39
2021/01/22 06:14:35;;;;;;;18.80;14.77;;;;;;;4.84;100.00;97692.00;4940645;29;20212;-36
2021/01/22 06:17:22;;;;;;;21.10;16.27;;;;;;;4.65;100.00;97685.69;4940636;29;20327;-37
2021/01/22 06:20:12;;;;;;;27.03;18.70;;;;;;;4.69;100.00;97700.94;4940470;29;20200;-37
2021/01/22 06:23:11;;;;;;;26.27;18.20;;;;;;;5.00;100.00;97702.66;4940345;29;20675;-35
2021/01/22 06:26:02;;;;;;;30.47;19.60;;;;;;;4.76;100.00;97704.19;4940742;29;20216;-38
2021/01/22 06:28:51;;;;;;;24.50;20.27;;;;;;;4.70;100.00;97701.78;4939836;29;20241;-38
2021/01/22 06:31:38;;;;;;;26.80;18.83;;;;;;;4.90;100.00;97706.38;4940084;29;20224;-39
2021/01/22 06:34:26;;;;;;;25.27;18.73;;;;;;;4.91;100.00;97725.97;4940473;29;20208;-39
2021/01/22 06:37:14;;;;;;;22.67;17.50;;;;;;;5.04;100.00;97723.03;4939969;29;20512;-36
2021/01/22 06:40:03;;;;;;;25.13;18.03;;;;;;;5.02;100.00;97722.22;4939536;29;20208;-39
2021/01/22 06:42:53;;;;;;;28.50;18.00;;;;;;;4.83;100.00;97708.25;4940153;29;20193;-36
2021/01/22 06:45:39;;;;;;;23.70;17.13;;;;;;;5.07;100.00;97730.63;4940266;29;20204;-35
2021/01/22 06:48:26;;;;;;;22.67;16.40;;;;;;;5.17;100.00;97713.28;4939879;29;20204;-38
2021/01/22 06:51:16;;;;;;;25.27;16.17;;;;;;;5.21;100.00;97717.41;4939153;29;20205;-38
2021/01/22 06:54:15;;;;;;;24.07;16.10;;;;;;;4.98;100.00;97718.09;4939269;29;20212;-35
2021/01/22 06:57:12;;;;;;;22.47;15.30;;;;;;;4.94;100.00;97731.84;4938922;29;20236;-37
2021/01/22 07:00:01;;;;;;;22.60;16.17;;;;;;;5.07;100.00;97730.63;4975044;28;20286;-37
2021/01/22 07:02:49;;;;;;;22.60;14.63;;;;;;;5.01;100.00;97740.19;4977759;28;20207;-36
2021/01/22 07:05:35;;;;;;;20.33;14.77;;;;;;;5.11;100.00;97749.31;4977584;28;20198;-36
2021/01/22 07:08:53;;;;;;;22.77;15.57;;;;;;;4.99;100.00;97752.22;4977780;28;20195;-35
2021/01/22 07:11:53;;;;;;;25.37;16.33;;;;;;;5.16;100.00;97752.59;4977194;28;20265;-39
2021/01/22 07:14:45;;;;;;;20.13;14.70;;;;;;;5.18;100.00;97755.97;4977625;28;20210;-33
2021/01/22 07:17:38;;;;;;;21.03;15.67;;;;;;;5.32;100.00;97765.81;4977502;28;20347;-35
2021/01/22 07:20:25;;;;;;;21.20;15.03;;;;;;;5.08;100.00;97765.63;4977815;28;20490;-36
2021/01/22 07:23:16;;;;;;;19.87;14.17;;;;;;;5.16;100.00;97766.25;4977131;28;20198;-37
2021/01/22 07:26:09;;;;;;;21.90;15.67;;;;;;;5.09;100.00;97766.44;4977584;28;20529;-36
2021/01/22 07:28:56;;;;;;;23.83;16.53;;;;;;;5.25;100.00;97769.44;4978148;28;20261;-36
2021/01/22 07:31:59;;;;;;;23.10;15.60;;;;;;;5.11;100.00;97765.53;4976946;28;20203;-35
2021/01/22 07:34:48;;;;;;;21.17;14.53;;;;;;;5.13;100.00;97773.19;4977142;28;20613;-36
2021/01/22 07:37:42;;;;;;;22.57;14.83;;;;;;;5.23;100.00;97778.88;4976975;28;20235;-33
2021/01/22 07:40:29;;;;;;;22.43;13.50;;;;;;;5.16;100.00;97775.66;4976935;28;20208;-38
2021/01/22 07:43:17;;;;;;;22.20;14.43;;;;;;;5.41;100.00;97788.59;4977394;28;20347;-34
2021/01/22 07:46:09;;;;;;;18.27;15.10;;;;;;;5.44;100.00;97788.53;4976918;28;20480;-37
2021/01/22 07:49:07;;;;;;;19.00;14.33;;;;;;;5.53;100.00;97803.66;4976962;28;20242;-36
2021/01/22 07:51:54;;;;;;;17.93;14.67;;;;;;;5.48;100.00;97800.38;4977661;28;20207;-37
2021/01/22 07:54:41;;;;;;;18.43;13.63;;;;;;;5.33;100.00;97800.81;4977522;28;20637;-37
2021/01/22 07:57:29;;;;;;;17.60;13.13;;;;;;;5.30;100.00;97816.28;4976891;28;20314;-38
2021/01/22 08:00:24;;;;;;;18.70;13.80;;;;;;;5.33;100.00;97805.94;4977605;28;20204;-35
2021/01/22 08:03:13;;;;;;;19.87;13.77;;;;;;;5.48;100.00;97815.75;4978721;28;20594;-36
2021/01/22 08:06:00;;;;;;;19.60;13.33;;;;;;;5.47;100.00;97808.97;4981382;28;20263;-34
2021/01/22 08:08:48;;;;;;;17.60;13.23;;;;;;;5.54;100.00;97818.16;4981142;28;20323;-39
2021/01/22 08:11:34;;;;;;;19.20;14.23;;;;;;;5.62;100.00;97820.50;4981181;28;20200;-36
2021/01/22 08:14:30;;;;;;;17.83;13.80;;;;;;;5.39;100.00;97821.16;4981099;28;20245;-33
2021/01/22 08:17:17;;;;;;;19.53;14.13;;;;;;;5.33;100.00;97821.31;4980638;28;20239;-33
2021/01/22 08:20:10;;;;;;;21.30;15.17;;;;;;;5.38;100.00;97820.31;4980649;28;20599;-39
2021/01/22 08:22:59;;;;;;;18.27;13.97;;;;;;;5.34;100.00;97813.59;4980424;28;20342;-35
2021/01/22 08:25:46;;;;;;;20.13;14.47;;;;;;;5.50;100.00;97825.09;4966507;28;20951;-37
2021/01/22 08:28:33;;;;;;;17.37;13.57;;;;;;;5.50;100.00;97830.22;4980539;28;20603;-37
2021/01/22 08:31:21;;;;;;;23.43;14.67;;;;;;;5.66;100.00;97832.34;4981054;28;20207;-37
2021/01/22 08:34:08;;;;;;;19.03;13.83;;;;;;;5.63;100.00;97829.88;4980463;28;20209;-37
2021/01/22 08:36:58;;;;;;;18.07;14.30;;;;;;;5.89;100.00;97842.81;4980318;28;20223;-39
2021/01/22 08:40:00;;;;;;;21.97;15.23;;;;;;;5.57;100.00;97856.53;4988573;28;20670;-39
2021/01/22 08:43:07;;;;;;;18.73;13.20;;;;;;;5.95;100.00;97852.91;4999784;28;20259;-41
2021/01/22 08:46:07;;;;;;;19.40;14.37;;;;;;;5.94;100.00;97858.94;5000087;28;20219;-38
2021/01/22 08:48:53;;;;;;;20.33;14.43;;;;;;;5.46;100.00;97863.66;4999684;28;20612;-34
2021/01/22 08:51:43;;;;;;;18.70;14.20;;;;;;;5.59;100.00;97862.47;4999812;28;20470;-35
2021/01/22 08:54:37;;;;;;;18.10;14.03;;;;;;;5.70;100.00;97864.72;4999824;28;20212;-35
2021/01/22 08:57:29;;;;;;;20.20;14.30;;;;;;;5.85;100.00;97872.81;4999842;28;20246;-40
2021/01/22 09:00:25;;;;;;;19.00;14.37;;;;;;;5.92;100.00;97872.69;4999553;28;20207;-33
2021/01/22 09:03:20;;;;;;;22.90;13.43;;;;;;;5.98;100.00;97877.66;4999491;28;20195;-37
2021/01/22 09:06:08;;;;;;;18.50;13.60;;;;;;;5.96;100.00;97881.97;4999437;28;20200;-40
2021/01/22 09:09:01;;;;;;;21.47;14.83;;;;;;;5.92;100.00;97893.22;4998310;28;20212;-39
2021/01/22 09:11:56;;;;;;;17.67;13.07;;;;;;;6.03;100.00;97893.72;4980727;28;20495;-37
2021/01/22 09:14:58;;;;;;;19.27;12.63;;;;;;;5.86;100.00;97895.03;4979987;28;20216;-37
2021/01/22 09:17:54;;;;;;;18.10;12.70;;;;;;;5.96;100.00;97890.50;4979457;28;20771;-35
2021/01/22 09:20:44;;;;;;;14.60;11.90;;;;;;;5.96;100.00;97898.22;4979814;28;20209;-38
2021/01/22 09:23:34;;;;;;;17.13;12.03;;;;;;;6.07;100.00;97897.88;4979494;28;20210;-36
2021/01/22 09:26:21;;;;;;;17.53;11.83;;;;;;;6.07;100.00;97888.47;4979663;28;20202;-35
2021/01/22 09:29:07;;;;;;;17.27;12.23;;;;;;;6.17;100.00;97881.34;4979341;28;20205;-37
2021/01/22 09:31:58;;;;;;;20.80;13.20;;;;;;;6.31;100.00;97893.75;4979635;28;20205;-38
2021/01/22 09:34:44;;;;;;;15.87;11.93;;;;;;;6.48;100.00;97888.94;4979217;28;20651;-34
2021/01/22 09:37:31;;;;;;;18.33;13.47;;;;;;;6.36;100.00;97890.19;4979369;28;20327;-36
2021/01/22 09:40:19;;;;;;;18.17;11.97;;;;;;;6.36;100.00;97902.16;4979733;28;20489;-38
2021/01/22 09:43:06;;;;;;;17.80;11.67;;;;;;;6.74;100.00;97913.81;4979127;28;20200;-35
2021/01/22 09:45:56;;;;;;;13.20;11.07;;;;;;;6.68;100.00;97924.28;4979507;28;20362;-35
2021/01/22 09:48:47;;;;;;;18.70;12.20;;;;;;;6.81;100.00;97925.56;4979251;28;20299;-35
2021/01/22 09:51:33;;;;;;;17.60;11.27;;;;;;;6.61;100.00;97925.34;4978944;28;20202;-36
2021/01/22 09:54:20;;;;;;;16.80;12.83;;;;;;;6.65;100.00;97929.50;4979637;28;20209;-35
2021/01/22 09:57:07;;;;;;;15.90;12.53;;;;;;;6.87;100.00;97925.38;4979173;28;20250;-38
2021/01/22 09:59:55;;;;;;;17.07;11.97;;;;;;;6.64;100.00;97925.25;4978683;28;20314;-36
2021/01/22 10:02:42;;;;;;;15.23;10.77;;;;;;;6.67;100.00;97926.00;4978913;28;20582;-33
2021/01/22 10:05:32;;;;;;;13.83;10.23;;;;;;;6.83;100.00;97926.38;4978825;28;20253;-36
2021/01/22 10:08:20;;;;;;;16.03;11.87;;;;;;;6.76;100.00;97925.75;4978152;28;20239;-35
2021/01/22 10:11:07;;;;;;;18.60;10.40;;;;;;;6.93;100.00;97926.94;4979157;28;20417;-35
2021/01/22 10:13:57;;;;;;;15.87;10.57;;;;;;;7.06;100.00;97944.47;4997326;28;20205;-36
2021/01/22 10:16:47;;;;;;;14.50;10.40;;;;;;;6.70;100.00;97941.34;4998037;28;20594;-39
2021/01/22 10:19:34;;;;;;;17.23;11.07;;;;;;;7.01;100.00;97948.91;4998289;28;20198;-40
2021/01/22 10:22:22;;;;;;;12.83;11.07;;;;;;;6.69;100.00;97949.09;4997877;28;20641;-37
2021/01/22 10:25:10;;;;;;;19.63;11.47;;;;;;;6.81;100.00;97946.97;4997462;28;20493;-39
2021/01/22 10:27:58;;;;;;;15.53;11.63;;;;;;;6.70;100.00;97954.19;4997324;28;20202;-39
2021/01/22 10:30:44;;;;;;;18.20;12.20;;;;;;;6.74;100.00;97960.06;4997575;28;20201;-40
2021/01/22 10:33:30;;;;;;;16.53;13.17;;;;;;;6.67;100.00;97969.69;4997573;28;20684;-38
2021/01/22 10:36:17;;;;;;;19.63;12.27;;;;;;;6.71;100.00;97967.88;4997046;28;20269;-38
2021/01/22 10:39:05;;;;;;;17.43;12.40;;;;;;;6.59;100.00;97966.53;4997585;28;20743;-34
2021/01/22 10:41:52;;;;;;;15.13;11.90;;;;;;;6.93;100.00;97978.31;4997273;28;20610;-39
2021/01/22 10:44:39;;;;;;;18.33;12.40;;;;;;;7.06;100.00;97980.44;4997122;28;20202;-36
2021/01/22 10:47:28;;;;;;;15.40;10.97;;;;;;;7.13;100.00;97988.81;4997256;28;20242;-38
2021/01/22 10:50:17;;;;;;;15.33;11.20;;;;;;;7.35;100.00;97992.38;4997436;28;20497;-38
2021/01/22 10:53:04;;;;;;;16.50;11.17;;;;;;;7.22;100.00;97997.06;4997210;28;20597;-37
2021/01/22 10:55:52;;;;;;;15.47;10.83;;;;;;;7.13;100.00;97986.25;4997165;28;20199;-37
2021/01/22 10:58:38;;;;;;;17.43;11.17;;;;;;;7.19;100.00;97997.16;4997599;28;20238;-34
2021/01/22 11:01:25;;;;;;;14.53;10.10;;;;;;;7.50;100.00;97994.44;4998104;28;20311;-36
2021/01/22 11:04:12;;;;;;;12.63;9.90;;;;;;;7.44;100.00;98002.34;4997384;28;20226;-39
2021/01/22 11:06:58;;;;;;;13.40;11.03;;;;;;;7.78;100.00;98011.53;4997005;28;20210;-39
2021/01/22 11:09:45;;;;;;;17.57;10.60;;;;;;;7.75;100.00;98002.19;4997057;28;20258;-33
2021/01/22 11:12:33;;;;;;;11.53;9.13;;;;;;;7.67;100.00;98019.59;4996900;28;20345;-34
2021/01/22 11:15:20;;;;;;;15.00;10.17;;;;;;;7.72;100.00;98011.75;4996757;28;20608;-37
2021/01/22 11:18:10;;;;;;;12.77;9.83;;;;;;;7.50;100.00;98015.03;4996702;28;20273;-39
2021/01/22 11:21:02;;;;;;;10.27;9.17;;;;;;;7.35;100.00;98020.66;4996798;28;20326;-38
2021/01/22 11:23:53;;;;;;;13.37;9.17;;;;;;;7.44;100.00;98016.94;4997501;28;20253;-36
2021/01/22 11:26:40;;;;;;;13.43;9.50;;;;;;;7.22;100.00;98024.50;4996835;28;20689;-37
2021/01/22 11:29:28;;;;;;;12.77;9.20;;;;;;;7.37;100.00;98028.34;4997333;28;20211;-37
2021/01/22 11:32:14;;;;;;;12.27;9.23;;;;;;;7.72;100.00;98033.16;4996361;28;20250;-38
2021/01/22 11:35:01;;;;;;;17.80;9.70;;;;;;;7.42;100.00;98042.72;4995956;28;20213;-37
2021/01/22 11:37:49;;;;;;;12.10;9.33;;;;;;;7.40;100.00;98035.94;4997657;28;20528;-35
2021/01/22 11:40:36;;;;;;;16.33;9.40;;;;;;;7.68;100.00;98041.88;5001220;28;20197;-38
2021/01/22 11:43:26;;;;;;;13.80;9.83;;;;;;;7.65;100.00;98041.97;5000522;28;20288;-38
2021/01/22 11:46:18;;;;;;;22.83;12.07;;;;;;;7.68;100.00;98052.16;5000163;28;20205;-39
2021/01/22 11:49:08;;;;;;;11.40;9.30;;;;;;;7.70;100.00;98055.53;5000823;28;20213;-37
2021/01/22 11:51:55;;;;;;;12.63;9.10;;;;;;;8.00;100.00;98056.22;5000894;28;20289;-38
2021/01/22 11:54:42;;;;;;;11.90;8.67;;;;;;;7.53;100.00;98058.66;5000549;28;20303;-39
2021/01/22 11:57:28;;;;;;;12.83;8.33;;;;;;;7.56;100.00;98063.72;5000935;28;20234;-39
2021/01/22 12:00:22;;;;;;;13.83;9.90;;;;;;;8.00;100.00;98058.78;4981331;28;20199;-38
2021/01/22 12:03:10;;;;;;;13.07;8.33;;;;;;;7.41;100.00;98058.19;4980638;28;20486;-35
2021/01/22 12:05:56;;;;;;;11.83;8.30;;;;;;;7.71;100.00;98069.25;4980797;28;20577;-38
2021/01/22 12:08:42;;;;;;;14.77;8.80;;;;;;;7.46;100.00;98061.47;4980743;28;20354;-38
2021/01/22 12:11:32;;;;;;;13.23;8.00;;;;;;;7.39;100.00;98065.16;4981031;28;20267;-39
2021/01/22 12:14:19;;;;;;;12.00;8.33;;;;;;;7.29;100.00;98061.16;4980419;28;20199;-38
2021/01/22 12:17:06;;;;;;;11.73;8.37;;;;;;;7.41;100.00;98053.88;4981414;28;20234;-34
2021/01/22 12:19:54;;;;;;;13.40;9.00;;;;;;;7.47;100.00;98058.00;4981057;28;20298;-33
2021/01/22 12:22:40;;;;;;;13.23;9.20;;;;;;;7.41;100.00;98056.47;4980950;28;20259;-40
2021/01/22 12:25:32;;;;;;;13.93;8.90;;;;;;;7.44;100.00;98047.81;4980973;28;20294;-37
2021/01/22 12:28:18;;;;;;;9.00;8.10;;;;;;;7.42;100.00;98050.44;4980385;28;20601;-37
2021/01/22 12:31:05;;;;;;;9.30;8.40;;;;;;;7.30;100.00;98043.13;4980808;28;20473;-36
2021/01/22 12:33:51;;;;;;;10.23;8.23;;;;;;;7.58;100.00;98035.38;4981197;28;20207;-34
2021/01/22 12:36:40;;;;;;;9.33;8.07;;;;;;;7.33;100.00;98045.59;4980010;28;20501;-35
2021/01/22 12:39:28;;;;;;;13.17;7.70;;;;;;;8.00;100.00;98037.34;4980436;28;20203;-35
2021/01/22 12:42:14;;;;;;;9.33;7.07;;;;;;;7.96;100.00;98046.94;4980193;28;20200;-37
2021/01/22 12:45:01;;;;;;;13.20;8.07;;;;;;;7.99;100.00;98049.41;4980449;28;20298;-37
2021/01/22 12:47:47;;;;;;;9.70;7.30;;;;;;;7.57;100.00;98049.13;4980507;28;20258;-37
2021/01/22 12:50:38;;;;;;;13.07;8.47;;;;;;;8.21;100.00;98062.34;4979817;28;20203;-41
2021/01/22 12:53:26;;;;;;;9.93;7.53;;;;;;;8.42;100.00;98059.06;4979273;28;20217;-34
2021/01/22 12:56:13;;;;;;;11.00;7.70;;;;;;;8.68;100.00;98059.84;4979875;28;20211;-37
2021/01/22 12:59:01;;;;;;;9.17;7.10;;;;;;;8.80;100.00;98057.66;4990151;28;20302;-38
2021/01/22 13:01:51;;;;;;;12.43;6.40;;;;;;;8.56;100.00;98056.84;4999718;28;20263;-39
2021/01/22 13:04:38;;;;;;;10.80;6.70;;;;;;;9.16;100.00;98064.91;4999088;28;20286;-37